Time;durP1;ratioP1;P1;durP2;ratioP2;P2;SDS_P1;SDS_P2;PMS_P1;PMS_P2;Temp;Humidity;BMP_temperature;BMP_pressure;BME280_temperature;BME280_humidity;BME280_pressure;Samples;Min_cycle;Max_cycle;Signal;HPM_P1;HPM_P2
2021/07/21 00:00:31;;;;;;;16.50;7.28;;;;;;;22.51;89.95;99928.89;1769277;79;20951;-57
2021/07/21 00:02:58;;;;;;;12.00;6.72;;;;;;;22.50;90.20;99934.00;1771107;79;20972;-58
2021/07/21 00:05:26;;;;;;;17.75;7.33;;;;;;;22.52;90.42;99947.00;1773872;78;21019;-58
2021/07/21 00:07:55;;;;;;;10.70;7.35;;;;;;;22.50;90.31;99944.05;1768394;78;20952;-59
2021/07/21 00:10:23;;;;;;;9.15;7.40;;;;;;;22.48;90.27;99953.78;1766148;78;21565;-59
2021/07/21 00:15:38;;;;;;;11.68;8.23;;;;;;;22.36;90.34;99944.02;1774033;78;21264;-58
2021/07/21 00:18:26;;;;;;;12.55;8.10;;;;;;;22.28;90.51;99939.30;1739773;80;21029;-57
2021/07/21 00:20:48;;;;;;;13.78;7.87;;;;;;;22.23;90.86;99943.87;1770912;79;20992;-59
2021/07/21 00:23:16;;;;;;;10.85;7.67;;;;;;;22.16;90.91;99938.63;1776206;78;21488;-60
2021/07/21 00:25:43;;;;;;;19.73;8.75;;;;;;;22.09;91.03;99933.42;1778114;78;21457;-59
2021/07/21 00:28:09;;;;;;;18.52;8.68;;;;;;;21.99;91.20;99922.02;1768285;78;20976;-59
2021/07/21 00:30:36;;;;;;;17.10;8.85;;;;;;;21.95;91.66;99932.87;1776749;78;21222;-60
2021/07/21 00:33:03;;;;;;;19.02;9.00;;;;;;;21.90;92.03;99931.10;1777379;78;21047;-59
2021/07/21 00:35:30;;;;;;;16.20;9.25;;;;;;;21.83;92.56;99927.25;1788132;79;20972;-59
2021/07/21 00:37:57;;;;;;;15.65;9.03;;;;;;;21.80;93.01;99933.01;1781459;79;20984;-58
2021/07/21 00:40:24;;;;;;;15.00;8.05;;;;;;;21.74;93.18;99933.92;1780820;79;20977;-59
2021/07/21 00:42:53;;;;;;;22.58;9.08;;;;;;;21.70;93.35;99936.59;1778988;79;20934;-59
2021/07/21 00:45:20;;;;;;;11.80;8.30;;;;;;;21.68;93.55;99937.25;1786238;79;21111;-57
2021/07/21 00:47:48;;;;;;;14.20;8.43;;;;;;;21.66;93.52;99928.36;1787723;78;21112;-59
2021/07/21 00:50:18;;;;;;;20.05;8.70;;;;;;;21.65;93.58;99932.09;1788139;79;21536;-59
2021/07/21 00:52:45;;;;;;;15.45;8.10;;;;;;;21.65;93.69;99930.73;1776608;79;21043;-57
2021/07/21 00:55:14;;;;;;;11.45;7.92;;;;;;;21.68;93.59;99934.52;1786044;79;21026;-59
2021/07/21 00:58:01;;;;;;;11.48;8.23;;;;;;;21.67;93.45;99925.14;1791675;79;21092;-59
2021/07/21 01:00:29;;;;;;;15.98;8.05;;;;;;;21.66;93.52;99913.35;1776972;79;21543;-59
2021/07/21 01:02:56;;;;;;;14.20;8.55;;;;;;;21.65;93.67;99912.13;1782769;79;21001;-58
2021/07/21 01:05:27;;;;;;;16.90;9.00;;;;;;;21.66;93.63;99911.98;1783493;79;21636;-58
2021/07/21 01:07:55;;;;;;;14.38;8.98;;;;;;;21.66;93.51;99911.98;1790848;79;21498;-57
2021/07/21 01:10:24;;;;;;;15.72;8.45;;;;;;;21.63;93.60;99904.07;1788180;79;20990;-59
2021/07/21 01:13:00;;;;;;;15.35;8.18;;;;;;;21.60;93.65;99905.73;1775502;79;20992;-59
2021/07/21 01:15:37;;;;;;;19.00;8.85;;;;;;;21.58;93.71;99910.48;1786390;79;21015;-58
2021/07/21 01:18:09;;;;;;;12.90;7.97;;;;;;;21.57;93.79;99906.03;1787906;79;21024;-59
2021/07/21 01:21:15;;;;;;;13.60;8.13;;;;;;;21.54;93.91;99909.89;1776199;79;21071;-59
2021/07/21 01:23:53;;;;;;;20.05;8.58;;;;;;;21.53;94.04;99908.66;1790449;79;20976;-60
2021/07/21 01:26:57;;;;;;;13.90;8.05;;;;;;;21.51;94.23;99899.77;1787590;79;21968;-59
2021/07/21 01:29:27;;;;;;;11.25;7.90;;;;;;;21.49;94.44;99904.52;1767829;79;22231;-59
2021/07/21 01:31:56;;;;;;;12.75;8.75;;;;;;;21.46;94.78;99897.50;1783072;79;20940;-59
2021/07/21 01:34:26;;;;;;;11.93;8.40;;;;;;;21.44;94.95;99893.55;1774556;79;21932;-58
2021/07/21 01:36:53;;;;;;;15.23;7.97;;;;;;;21.43;95.11;99892.31;1764096;79;20979;-57
2021/07/21 01:39:28;;;;;;;14.07;7.92;;;;;;;21.41;95.02;99896.56;1771277;79;21111;-59
2021/07/21 01:41:59;;;;;;;14.83;8.60;;;;;;;21.39;95.02;99897.22;1777802;79;20999;-58
2021/07/21 01:44:28;;;;;;;10.93;8.05;;;;;;;21.39;95.15;99897.22;1774478;79;21611;-60
2021/07/21 01:46:58;;;;;;;12.35;8.33;;;;;;;21.37;95.06;99899.23;1772168;79;21587;-58
2021/07/21 01:49:29;;;;;;;11.50;7.90;;;;;;;21.33;95.05;99898.66;1754587;79;21011;-58
2021/07/21 01:52:01;;;;;;;11.83;8.30;;;;;;;21.30;95.30;99893.98;1770445;79;21023;-61
2021/07/21 01:54:27;;;;;;;11.75;8.00;;;;;;;21.28;95.29;99905.53;1766525;80;20984;-61
2021/07/21 01:56:57;;;;;;;11.28;8.38;;;;;;;21.26;95.47;99902.97;1741585;80;20988;-62
2021/07/21 01:59:25;;;;;;;13.85;8.33;;;;;;;21.25;95.50;99907.19;1763929;79;20910;-62
2021/07/21 02:01:55;;;;;;;11.88;8.78;;;;;;;21.25;95.61;99905.83;1769702;80;20953;-62
2021/07/21 02:04:24;;;;;;;11.00;8.18;;;;;;;21.24;95.72;99910.44;1770997;79;21129;-62
2021/07/21 02:06:52;;;;;;;14.65;8.38;;;;;;;21.26;95.68;99907.55;1761371;78;21270;-62
2021/07/21 02:09:18;;;;;;;12.45;8.00;;;;;;;21.25;95.55;99906.70;1773155;80;21058;-61
2021/07/21 02:11:45;;;;;;;16.02;8.75;;;;;;;21.24;95.55;99904.98;1768366;79;21060;-62
2021/07/21 02:14:13;;;;;;;13.15;8.48;;;;;;;21.25;95.73;99905.83;1770017;79;21004;-61
2021/07/21 02:16:59;;;;;;;14.63;8.53;;;;;;;21.27;95.90;99906.54;1761508;79;21122;-63
2021/07/21 02:19:30;;;;;;;19.80;9.10;;;;;;;21.28;95.81;99905.53;1770131;80;20874;-63
2021/07/21 02:21:59;;;;;;;17.98;8.98;;;;;;;21.28;95.85;99901.45;1768280;79;21024;-63
2021/07/21 02:24:28;;;;;;;17.85;8.50;;;;;;;21.30;96.00;99902.16;1762129;79;21044;-65
2021/07/21 02:27:08;;;;;;;14.03;8.43;;;;;;;21.32;95.91;99897.42;1739487;78;21051;-62
2021/07/21 02:29:34;;;;;;;13.32;8.18;;;;;;;21.32;95.70;99902.87;1749927;79;21666;-62
2021/07/21 02:32:31;;;;;;;14.73;8.50;;;;;;;21.33;95.57;99892.33;1771198;79;21008;-62
2021/07/21 02:34:59;;;;;;;18.82;9.80;;;;;;;21.35;95.47;99892.19;1778846;79;21060;-62
2021/07/21 02:37:27;;;;;;;22.87;10.68;;;;;;;21.37;95.38;99887.45;1781150;79;21009;-62
2021/07/21 02:39:55;;;;;;;20.43;10.23;;;;;;;21.40;95.20;99893.48;1783576;79;21607;-62
2021/07/21 02:42:22;;;;;;;19.67;10.48;;;;;;;21.42;95.10;99891.47;1784042;79;21112;-62
2021/07/21 02:44:51;;;;;;;21.20;10.00;;;;;;;21.47;95.23;99889.16;1787050;79;20965;-62
2021/07/21 02:47:19;;;;;;;25.05;10.80;;;;;;;21.52;95.12;99891.45;1779326;79;20980;-63
2021/07/21 02:49:50;;;;;;;13.90;9.20;;;;;;;21.57;94.80;99888.30;1785398;79;21032;-61
2021/07/21 02:52:40;;;;;;;18.35;9.03;;;;;;;21.59;94.23;99891.22;1779118;79;21020;-61
2021/07/21 02:55:33;;;;;;;15.25;8.48;;;;;;;21.60;93.80;99896.19;1775763;79;22026;-59
2021/07/21 02:58:40;;;;;;;15.53;9.73;;;;;;;21.58;93.66;99892.75;1786563;79;21613;-60
2021/07/21 03:01:08;;;;;;;23.83;10.23;;;;;;;21.59;93.61;99904.02;1774852;79;21069;-62
2021/07/21 03:03:36;;;;;;;23.65;10.38;;;;;;;21.58;93.48;99903.66;1735476;81;21093;-62
2021/07/21 03:06:08;;;;;;;18.62;10.80;;;;;;;21.56;93.63;99901.06;1728245;81;21561;-62
2021/07/21 03:08:39;;;;;;;16.37;10.32;;;;;;;21.56;93.54;99901.58;1719454;81;22212;-62
2021/07/21 03:11:12;;;;;;;13.43;10.58;;;;;;;21.54;93.73;99898.98;1721091;82;21656;-62
2021/07/21 03:13:47;;;;;;;16.82;11.70;;;;;;;21.52;93.84;99902.86;1720858;82;20954;-61
2021/07/21 03:16:15;;;;;;;18.67;11.65;;;;;;;21.49;94.06;99901.30;1716860;82;21040;-61
2021/07/21 03:18:52;;;;;;;25.37;12.35;;;;;;;21.46;94.27;99896.98;1721624;82;21529;-61
2021/07/21 03:21:20;;;;;;;19.57;12.03;;;;;;;21.49;94.40;99899.06;1724295;82;21071;-60
2021/07/21 03:23:49;;;;;;;22.62;12.95;;;;;;;21.52;94.46;99902.86;1725696;82;21080;-61
2021/07/21 03:26:23;;;;;;;22.40;13.20;;;;;;;21.55;94.60;99902.56;1711940;82;21470;-61
2021/07/21 03:28:53;;;;;;;19.87;12.60;;;;;;;21.61;94.55;99914.27;1722692;82;21583;-62
2021/07/21 03:31:22;;;;;;;22.87;12.93;;;;;;;21.65;94.25;99917.09;1729413;80;20977;-62
2021/07/21 03:34:11;;;;;;;20.97;13.25;;;;;;;21.71;94.22;99926.04;1734336;80;21117;-62
2021/07/21 03:36:44;;;;;;;24.60;13.50;;;;;;;21.77;94.17;99930.05;1739725;81;21358;-61
2021/07/21 03:39:29;;;;;;;25.35;13.75;;;;;;;21.87;93.94;99928.67;1724819;81;21370;-61
2021/07/21 03:42:02;;;;;;;20.72;12.55;;;;;;;21.91;93.76;99930.61;1698103;81;20908;-61
2021/07/21 03:44:29;;;;;;;20.68;12.58;;;;;;;21.93;93.77;99942.23;1733527;81;21074;-62
2021/07/21 03:46:57;;;;;;;17.37;12.93;;;;;;;21.90;94.00;99943.38;1754364;80;21130;-61
2021/07/21 03:49:24;;;;;;;20.72;13.58;;;;;;;21.87;94.62;99946.41;1764948;79;21542;-61
2021/07/21 03:52:11;;;;;;;19.23;13.05;;;;;;;21.85;95.08;99944.33;1766282;79;22136;-61
2021/07/21 03:54:38;;;;;;;22.95;14.60;;;;;;;21.87;95.53;99947.77;1777815;79;21522;-61
2021/07/21 03:57:21;;;;;;;21.17;14.18;;;;;;;21.88;95.92;99950.37;1782872;79;21088;-58
2021/07/21 03:59:48;;;;;;;20.52;14.75;;;;;;;21.94;96.37;99955.71;1778090;79;22171;-58
2021/07/21 04:02:16;;;;;;;22.82;15.13;;;;;;;21.96;96.63;99961.88;1776963;79;21099;-58
2021/07/21 04:04:46;;;;;;;20.48;14.93;;;;;;;21.98;97.08;99965.32;1740113;80;21032;-58
2021/07/21 04:07:15;;;;;;;22.37;14.85;;;;;;;21.98;97.74;99971.30;1722249;82;21085;-59
2021/07/21 04:09:46;;;;;;;37.42;17.07;;;;;;;21.99;98.32;99979.32;1749076;80;21486;-58
2021/07/21 04:12:14;;;;;;;38.98;17.70;;;;;;;21.99;98.51;99973.86;1753546;80;21066;-58
2021/07/21 04:14:48;;;;;;;32.77;16.47;;;;;;;21.99;98.78;99974.38;1740953;80;20953;-59
2021/07/21 04:17:19;;;;;;;33.78;17.73;;;;;;;22.04;99.01;99975.67;1751147;80;21080;-59
2021/07/21 04:19:47;;;;;;;29.52;19.35;;;;;;;22.14;99.28;99969.31;1749215;80;21052;-59
2021/07/21 04:22:14;;;;;;;28.23;19.80;;;;;;;22.24;98.86;99983.80;1742892;81;21031;-59
2021/07/21 04:24:45;;;;;;;35.10;22.52;;;;;;;22.28;98.51;99975.67;1746087;80;21132;-58
2021/07/21 04:27:12;;;;;;;49.63;24.18;;;;;;;22.32;98.59;99975.72;1722994;81;21526;-59
2021/07/21 04:29:42;;;;;;;40.43;25.15;;;;;;;22.40;98.08;99968.64;1729178;81;21012;-59
2021/07/21 04:32:10;;;;;;;36.90;23.52;;;;;;;22.51;97.94;99971.23;1758820;80;21698;-60
2021/07/21 04:34:38;;;;;;;33.73;21.62;;;;;;;22.65;97.05;99968.98;1745397;80;20869;-61
2021/07/21 04:37:05;;;;;;;43.50;21.33;;;;;;;22.79;95.85;99976.69;1726357;80;21403;-61
2021/07/21 04:39:54;;;;;;;27.60;18.35;;;;;;;22.87;94.91;99973.19;1731240;82;21210;-62
2021/07/21 04:42:28;;;;;;;27.75;17.73;;;;;;;22.96;94.68;99979.61;1721765;81;20933;-63
2021/07/21 04:44:57;;;;;;;21.82;15.13;;;;;;;23.07;93.65;99976.65;1745503;80;21028;-61
2021/07/21 04:47:25;;;;;;;23.92;15.75;;;;;;;23.17;92.67;99977.45;1774881;79;21111;-61
2021/07/21 04:49:52;;;;;;;27.67;16.05;;;;;;;23.29;92.17;99982.71;1795900;79;21093;-62
2021/07/21 04:52:20;;;;;;;22.17;16.15;;;;;;;23.36;91.00;99978.36;1794012;79;21063;-62
2021/07/21 04:54:47;;;;;;;25.23;15.68;;;;;;;23.39;91.23;99971.20;1727952;82;20965;-62
2021/07/21 04:57:15;;;;;;;29.67;15.98;;;;;;;23.54;91.02;99975.61;1741534;81;21426;-62
2021/07/21 04:59:52;;;;;;;25.20;16.37;;;;;;;23.71;90.28;99979.33;1753714;80;21545;-61
2021/07/21 05:02:19;;;;;;;29.05;15.65;;;;;;;23.89;88.89;99962.03;1763582;79;21383;-63
2021/07/21 05:04:46;;;;;;;25.65;16.75;;;;;;;23.96;88.05;99969.09;1778059;79;20923;-62
2021/07/21 05:07:20;;;;;;;31.02;17.07;;;;;;;23.94;87.65;99988.41;1779740;79;20976;-62
2021/07/21 05:09:49;;;;;;;35.23;17.05;;;;;;;23.96;87.69;99980.88;1781670;79;20853;-63
2021/07/21 05:12:15;;;;;;;30.43;16.82;;;;;;;24.02;87.47;99976.69;1783390;79;20910;-63
2021/07/21 05:14:47;;;;;;;29.52;18.73;;;;;;;24.09;87.21;99978.28;1787766;79;21430;-63
2021/07/21 05:17:30;;;;;;;30.75;18.50;;;;;;;24.12;86.71;99972.48;1762697;80;21359;-62
2021/07/21 05:19:58;;;;;;;37.25;16.95;;;;;;;24.09;86.41;99974.17;1779994;79;21419;-62
2021/07/21 05:22:25;;;;;;;32.90;17.62;;;;;;;24.02;86.74;99984.41;1779479;79;20942;-62
2021/07/21 05:24:53;;;;;;;30.20;18.35;;;;;;;23.97;86.46;99975.77;1783184;78;21498;-62
2021/07/21 05:27:21;;;;;;;43.48;19.00;;;;;;;23.93;86.90;99970.79;1763434;79;21586;-62
2021/07/21 05:29:47;;;;;;;28.87;18.25;;;;;;;23.89;87.13;99986.66;1786684;79;20898;-62
2021/07/21 05:32:25;;;;;;;34.70;19.62;;;;;;;23.89;87.71;99988.91;1779370;79;21375;-62
2021/07/21 05:34:56;;;;;;;41.85;21.50;;;;;;;23.90;87.87;99985.64;1785216;79;20878;-62
2021/07/21 05:37:27;;;;;;;29.50;21.23;;;;;;;23.95;87.95;99990.12;1788516;79;21426;-62
2021/07/21 05:39:56;;;;;;;38.90;22.25;;;;;;;24.00;87.54;99991.02;1785793;79;21099;-62
2021/07/21 05:42:25;;;;;;;31.68;20.80;;;;;;;23.96;87.49;99984.99;1781095;79;20894;-62
2021/07/21 05:44:52;;;;;;;36.17;22.87;;;;;;;23.96;87.34;99997.31;1782527;79;21377;-62
2021/07/21 05:47:19;;;;;;;34.18;21.65;;;;;;;23.97;87.25;99981.23;1782044;79;21577;-62
2021/07/21 05:49:46;;;;;;;34.63;22.22;;;;;;;23.97;87.04;99992.19;1781694;79;21020;-62
2021/07/21 05:52:16;;;;;;;37.88;22.13;;;;;;;23.97;87.04;99997.66;1787480;79;21140;-59
2021/07/21 05:54:43;;;;;;;33.75;21.52;;;;;;;23.96;87.38;99994.57;1783267;79;21418;-59
2021/07/21 05:57:11;;;;;;;33.02;22.17;;;;;;;23.97;87.65;99996.29;1781903;79;20952;-63
2021/07/21 05:59:40;;;;;;;34.67;22.32;;;;;;;24.02;87.52;100004.94;1780936;79;20875;-60
2021/07/21 06:02:09;;;;;;;35.25;20.32;;;;;;;24.06;87.42;100001.88;1785821;78;20881;-59
2021/07/21 06:04:41;;;;;;;28.90;20.12;;;;;;;24.12;87.21;99997.99;1783299;78;21330;-59
2021/07/21 06:07:26;;;;;;;38.78;20.62;;;;;;;24.20;86.69;99995.80;1725321;81;20958;-59
2021/07/21 06:10:18;;;;;;;37.38;22.45;;;;;;;24.30;86.43;99995.19;1738033;81;21320;-62
2021/07/21 06:12:49;;;;;;;35.43;21.05;;;;;;;24.45;85.53;100001.44;1740605;81;20878;-62
2021/07/21 06:15:17;;;;;;;39.03;22.52;;;;;;;24.55;85.32;100001.33;1781349;79;20905;-64
2021/07/21 06:17:44;;;;;;;33.35;21.73;;;;;;;24.68;85.29;100000.34;1781939;79;21471;-60
2021/07/21 06:20:12;;;;;;;39.05;21.60;;;;;;;24.76;84.78;99994.07;1784968;79;20945;-60
2021/07/21 06:22:42;;;;;;;33.73;21.70;;;;;;;24.87;84.33;100009.36;1778304;79;20996;-61
2021/07/21 06:25:19;;;;;;;34.90;20.52;;;;;;;24.93;83.58;99994.14;1778459;79;20902;-59
2021/07/21 06:28:08;;;;;;;33.73;22.13;;;;;;;24.98;82.95;99997.23;1782572;79;25765;-59
2021/07/21 06:30:36;;;;;;;30.82;19.90;;;;;;;24.99;82.51;100003.94;1778258;79;20898;-61
2021/07/21 06:33:07;;;;;;;28.17;18.32;;;;;;;24.97;82.74;99991.41;1779490;78;21988;-61
2021/07/21 06:35:33;;;;;;;29.25;19.65;;;;;;;25.06;82.54;99995.88;1786432;78;20874;-61
2021/07/21 06:38:00;;;;;;;42.75;19.60;;;;;;;25.17;81.98;99996.07;1785202;79;20910;-61
2021/07/21 06:40:28;;;;;;;31.15;19.15;;;;;;;25.24;81.58;99992.16;1792658;79;20929;-61
2021/07/21 06:42:56;;;;;;;25.05;18.07;;;;;;;25.21;81.02;99989.75;1784499;79;21678;-62
2021/07/21 06:45:23;;;;;;;29.25;17.92;;;;;;;25.13;80.91;99995.57;1781945;79;21032;-62
2021/07/21 06:47:57;;;;;;;33.83;19.70;;;;;;;25.10;80.75;99997.78;1775811;79;21621;-60
2021/07/21 06:50:27;;;;;;;32.50;21.27;;;;;;;25.01;80.16;99996.89;1771569;79;21768;-61
2021/07/21 06:52:54;;;;;;;30.10;20.60;;;;;;;24.80;80.56;100009.16;1773886;79;21036;-64
2021/07/21 06:55:40;;;;;;;38.30;21.40;;;;;;;24.56;80.98;100001.67;1783682;78;21543;-60
2021/07/21 06:58:09;;;;;;;28.30;17.80;;;;;;;24.36;82.21;100017.46;1776804;78;21046;-61
2021/07/21 07:00:47;;;;;;;25.12;16.73;;;;;;;24.32;82.70;100012.31;1764021;78;21387;-60
2021/07/21 07:03:32;;;;;;;24.95;14.38;;;;;;;24.26;82.83;100018.45;1781154;78;20929;-59
2021/07/21 07:06:18;;;;;;;23.07;12.50;;;;;;;24.15;83.07;100021.44;1787742;79;21493;-59
2021/07/21 07:09:04;;;;;;;19.75;12.82;;;;;;;24.12;83.45;100020.39;1780163;78;21505;-61
2021/07/21 07:11:54;;;;;;;26.97;14.68;;;;;;;24.14;83.48;100026.56;1778454;78;21011;-61
2021/07/21 07:14:21;;;;;;;29.00;16.95;;;;;;;24.22;83.21;100024.39;1779776;78;20943;-61
2021/07/21 07:16:50;;;;;;;37.38;16.90;;;;;;;24.27;82.52;100024.77;1785601;78;20956;-61
2021/07/21 07:21:48;;;;;;;37.70;15.60;;;;;;;24.20;81.74;100024.55;1778806;79;21066;-59
2021/07/21 07:24:15;;;;;;;22.93;14.47;;;;;;;24.11;81.58;100028.26;1780327;79;21032;-59
2021/07/21 07:26:42;;;;;;;22.98;15.28;;;;;;;23.99;81.86;100031.23;1774798;79;21068;-59
2021/07/21 07:29:09;;;;;;;25.85;15.28;;;;;;;23.90;82.19;100030.80;1774673;79;21087;-58
2021/07/21 07:31:38;;;;;;;23.67;15.50;;;;;;;23.93;82.25;100032.38;1773902;78;21099;-59
2021/07/21 07:34:05;;;;;;;25.70;13.98;;;;;;;24.01;81.81;100033.80;1777307;79;21843;-59
2021/07/21 07:39:01;;;;;;;21.75;11.78;;;;;;;24.08;80.64;100036.80;1779675;78;21047;-60
2021/07/21 07:41:27;;;;;;;17.02;11.60;;;;;;;24.14;80.25;100047.10;1778349;79;21198;-59
2021/07/21 07:43:54;;;;;;;23.45;11.60;;;;;;;24.13;80.06;100046.75;1778087;79;20935;-59
2021/07/21 07:46:26;;;;;;;21.20;10.48;;;;;;;24.13;80.08;100045.38;1782878;79;21146;-59
2021/07/21 07:48:52;;;;;;;19.92;11.83;;;;;;;24.12;79.85;100051.88;1778653;78;21033;-59
2021/07/21 07:51:19;;;;;;;20.48;10.72;;;;;;;24.17;79.65;100064.08;1783944;78;20964;-59
2021/07/21 07:53:46;;;;;;;22.75;11.08;;;;;;;24.20;78.48;100053.30;1781240;78;20902;-60
2021/07/21 07:56:13;;;;;;;20.68;11.05;;;;;;;24.17;78.42;100063.20;1772093;78;21574;-60
2021/07/21 07:58:40;;;;;;;26.27;10.55;;;;;;;24.15;78.03;100055.66;1777397;78;21965;-59
2021/07/21 08:01:58;;;;;;;20.97;9.73;;;;;;;24.17;77.68;100066.82;1777028;78;21554;-59
2021/07/21 08:04:25;;;;;;;21.93;11.53;;;;;;;24.21;77.60;100060.52;1783826;78;20902;-60
2021/07/21 08:06:53;;;;;;;18.45;9.40;;;;;;;24.29;77.03;100063.80;1778172;78;21580;-59
2021/07/21 08:09:20;;;;;;;26.30;10.70;;;;;;;24.38;76.89;100056.51;1721244;80;21036;-61
2021/07/21 08:11:52;;;;;;;15.00;9.45;;;;;;;24.50;76.71;100063.45;1787544;78;21120;-58
2021/07/21 08:14:18;;;;;;;24.55;10.15;;;;;;;24.63;75.60;100058.90;1782672;79;21515;-58
2021/07/21 08:16:47;;;;;;;24.65;10.20;;;;;;;24.67;74.34;100052.06;1786011;78;20945;-58
2021/07/21 08:19:15;;;;;;;14.73;8.15;;;;;;;24.64;73.60;100055.13;1778456;78;20898;-59
2021/07/21 08:21:42;;;;;;;25.25;8.05;;;;;;;24.66;73.42;100055.83;1775649;78;20964;-58
2021/07/21 08:24:10;;;;;;;22.25;7.47;;;;;;;24.72;73.42;100048.84;1782402;78;21065;-59
2021/07/21 08:26:38;;;;;;;15.23;7.70;;;;;;;24.86;72.99;100058.36;1781524;79;20890;-58
2021/07/21 08:29:05;;;;;;;22.62;8.35;;;;;;;24.98;71.83;100063.03;1779854;79;20937;-59
2021/07/21 08:31:32;;;;;;;17.87;8.28;;;;;;;25.00;71.51;100054.13;1782007;78;20913;-59
2021/07/21 08:34:03;;;;;;;19.40;8.33;;;;;;;25.10;71.45;100069.08;1781021;78;21452;-62
2021/07/21 08:36:30;;;;;;;19.73;8.20;;;;;;;25.15;70.64;100053.84;1781434;78;21062;-59
2021/07/21 08:38:57;;;;;;;26.45;8.70;;;;;;;25.13;70.36;100089.31;1786329;79;21477;-59
2021/07/21 08:41:27;;;;;;;31.70;8.20;;;;;;;25.06;70.57;100065.80;1784618;79;21060;-59
2021/07/21 08:43:55;;;;;;;29.90;8.28;;;;;;;25.09;70.54;100070.98;1782419;79;21298;-59
2021/07/21 08:46:22;;;;;;;22.15;8.33;;;;;;;25.17;69.66;100069.62;1776544;79;21080;-60
2021/07/21 08:48:52;;;;;;;23.87;8.18;;;;;;;25.21;69.41;100083.00;1780871;79;21925;-60
2021/07/21 08:51:23;;;;;;;18.48;7.03;;;;;;;25.17;69.21;100066.01;1783320;79;20905;-59
2021/07/21 08:53:50;;;;;;;33.63;7.60;;;;;;;25.11;69.37;100075.78;1777934;78;21391;-60
2021/07/21 08:56:18;;;;;;;24.32;7.50;;;;;;;25.13;69.91;100066.88;1780577;78;21086;-59
2021/07/21 09:01:14;;;;;;;19.30;7.17;;;;;;;25.60;68.49;100053.64;1781119;79;21857;-60
2021/07/21 09:03:41;;;;;;;12.53;6.60;;;;;;;25.81;67.32;100064.64;1783846;78;21369;-61
2021/07/21 09:06:09;;;;;;;14.55;6.70;;;;;;;25.94;66.03;100064.14;1782286;78;20925;-60
2021/07/21 09:08:36;;;;;;;16.48;7.45;;;;;;;25.87;65.88;100070.81;1785893;78;20945;-59
2021/07/21 09:11:03;;;;;;;17.25;7.37;;;;;;;25.78;66.30;100069.11;1763023;79;21554;-59
2021/07/21 09:13:35;;;;;;;30.10;7.33;;;;;;;25.65;66.40;100072.36;1779065;78;21463;-61
2021/07/21 09:16:04;;;;;;;27.22;7.03;;;;;;;25.60;66.80;100064.09;1762421;79;20906;-61
2021/07/21 09:18:33;;;;;;;25.97;7.90;;;;;;;25.68;66.17;100071.48;1728163;80;21507;-60
2021/07/21 09:21:07;;;;;;;64.67;45.92;;;;;;;25.77;66.12;100068.23;1730663;80;20929;-59
2021/07/21 09:23:43;;;;;;;62.03;8.88;;;;;;;25.98;65.85;100067.75;1748518;80;20918;-60
2021/07/21 09:26:18;;;;;;;28.20;6.50;;;;;;;26.27;65.28;100070.50;1725247;81;21816;-59
2021/07/21 09:28:45;;;;;;;;;;;;;;;26.60;64.29;100073.70;1725166;81;20934;-59
2021/07/21 09:31:18;;;;;;;17.60;5.92;;;;;;;26.82;62.87;100077.58;1719319;81;20129;-59
2021/07/21 09:33:45;;;;;;;13.30;4.92;;;;;;;26.76;62.18;100057.68;1724005;82;21403;-60
2021/07/21 09:36:19;;;;;;;13.03;5.08;;;;;;;26.64;62.52;100074.20;1722195;81;20965;-60
2021/07/21 09:38:48;;;;;;;17.82;5.83;;;;;;;26.56;62.82;100070.44;1723398;82;21857;-61
2021/07/21 09:41:16;;;;;;;12.10;5.40;;;;;;;26.51;62.66;100064.63;1766748;78;21443;-61
2021/07/21 09:43:43;;;;;;;12.15;4.92;;;;;;;26.51;62.58;100065.13;1763015;78;22009;-61
2021/07/21 09:46:14;;;;;;;21.73;5.05;;;;;;;26.54;62.40;100056.02;1771614;80;20874;-59
2021/07/21 09:48:46;;;;;;;25.68;5.72;;;;;;;26.65;61.94;100053.95;1772210;78;20945;-60
2021/07/21 09:51:32;;;;;;;20.75;5.10;;;;;;;26.74;61.83;100057.00;1766806;78;21868;-60
2021/07/21 09:54:15;;;;;;;17.02;4.90;;;;;;;26.88;61.51;100053.55;1770013;78;20897;-60
2021/07/21 09:56:44;;;;;;;10.65;4.53;;;;;;;27.09;60.65;100058.97;1772722;80;20929;-60
2021/07/21 09:59:31;;;;;;;9.85;4.28;;;;;;;27.21;60.08;100056.67;1766727;79;20952;-60
2021/07/21 10:01:58;;;;;;;13.15;4.50;;;;;;;27.29;59.97;100052.99;1762446;80;21012;-60
2021/07/21 10:04:37;;;;;;;13.32;4.67;;;;;;;27.40;59.73;100053.97;1760504;79;21553;-60
2021/07/21 10:07:17;;;;;;;11.93;5.05;;;;;;;27.38;59.33;100071.19;1760408;80;21334;-59
2021/07/21 10:09:35;;;;;;;12.07;4.40;;;;;;;27.23;59.96;100067.48;1764384;80;21378;-61
2021/07/21 10:12:18;;;;;;;11.18;4.30;;;;;;;27.09;59.72;100071.34;1763753;80;21012;-61
2021/07/21 10:14:59;;;;;;;13.25;4.40;;;;;;;26.92;60.10;100071.06;1755738;78;21008;-59
2021/07/21 10:17:27;;;;;;;14.33;4.00;;;;;;;26.78;60.92;100064.39;1770033;78;21165;-60
2021/07/21 10:19:54;;;;;;;10.75;4.12;;;;;;;26.77;60.58;100055.27;1701399;82;20909;-59
2021/07/21 10:22:21;;;;;;;12.47;4.10;;;;;;;26.63;60.75;100057.36;1764367;78;20905;-61
2021/07/21 10:24:49;;;;;;;15.45;3.65;;;;;;;26.55;61.35;100057.73;1760574;79;20961;-59
2021/07/21 10:27:16;;;;;;;13.95;3.70;;;;;;;26.59;61.44;100073.38;1760851;79;20979;-60
2021/07/21 10:29:44;;;;;;;10.48;3.92;;;;;;;26.57;60.84;100072.69;1760447;79;21789;-61
2021/07/21 10:32:14;;;;;;;12.73;3.98;;;;;;;26.37;61.51;100058.45;1762563;78;20935;-60
2021/07/21 10:34:42;;;;;;;9.58;3.77;;;;;;;26.30;61.87;100066.03;1722972;78;21092;-60
2021/07/21 10:37:10;;;;;;;6.47;3.55;;;;;;;26.23;61.76;100066.89;1776678;79;20902;-61
2021/07/21 10:39:37;;;;;;;6.87;3.12;;;;;;;26.08;62.15;100070.83;1773565;79;20909;-60
2021/07/21 10:42:13;;;;;;;11.10;3.62;;;;;;;25.90;62.74;100064.98;1783134;79;21338;-60
2021/07/21 10:44:40;;;;;;;14.43;4.22;;;;;;;25.86;63.18;100075.97;1781142;79;20854;-60
2021/07/21 10:47:21;;;;;;;7.85;3.25;;;;;;;25.86;63.37;100064.98;1779084;79;21060;-61
2021/07/21 10:50:10;;;;;;;11.90;3.70;;;;;;;25.93;63.23;100063.27;1776083;79;21084;-60
2021/07/21 10:55:20;;;;;;;10.50;3.50;;;;;;;25.93;63.39;100060.52;1719052;81;21121;-59
2021/07/21 11:00:56;;;;;;;11.18;3.77;;;;;;;26.39;61.85;100070.13;1773104;79;21373;-59
2021/07/21 11:03:28;;;;;;;10.25;3.70;;;;;;;26.65;60.71;100061.66;1776019;79;21301;-60
2021/07/21 11:06:10;;;;;;;8.40;3.60;;;;;;;26.74;59.61;100072.13;1775025;79;20923;-60
2021/07/21 11:08:53;;;;;;;5.72;3.50;;;;;;;26.58;59.99;100062.88;1780475;79;21651;-60
2021/07/21 11:11:21;;;;;;;9.93;3.37;;;;;;;26.57;60.12;100072.16;1739369;81;20945;-62
2021/07/21 11:14:00;;;;;;;6.20;3.55;;;;;;;26.49;60.00;100068.06;1714743;82;20989;-60
2021/07/21 11:16:50;;;;;;;6.17;3.42;;;;;;;26.36;60.31;100067.73;1712965;82;20997;-60
2021/07/21 11:19:40;;;;;;;17.40;3.90;;;;;;;26.19;60.80;100063.63;1748589;79;21018;-60
2021/07/21 11:22:11;;;;;;;32.80;4.05;;;;;;;25.98;61.42;100069.62;1775153;79;21796;-60
2021/07/21 11:24:44;;;;;;;15.83;3.50;;;;;;;25.83;61.86;100059.84;1774546;79;21519;-58
2021/07/21 11:27:11;;;;;;;16.23;3.42;;;;;;;25.83;61.57;100073.03;1774296;79;20914;-60
2021/07/21 11:29:43;;;;;;;11.12;3.90;;;;;;;25.79;61.79;100068.08;1739792;79;21573;-61
2021/07/21 11:32:13;;;;;;;12.90;4.07;;;;;;;25.73;61.97;100066.34;1764973;79;20972;-60
2021/07/21 11:34:41;;;;;;;18.07;3.90;;;;;;;25.66;62.13;100065.31;1778107;78;21128;-60
2021/07/21 11:37:10;;;;;;;10.32;3.42;;;;;;;25.65;62.09;100055.36;1780465;79;20914;-60
2021/07/21 11:39:54;;;;;;;13.62;3.72;;;;;;;25.68;62.24;100061.88;1746747;81;20908;-62
2021/07/21 11:42:38;;;;;;;22.90;3.67;;;;;;;25.77;62.28;100056.41;1746018;80;21287;-60
2021/07/21 11:45:15;;;;;;;21.42;4.80;;;;;;;25.86;61.65;100052.63;1722710;81;20913;-59
2021/07/21 11:47:48;;;;;;;27.02;4.40;;;;;;;25.93;61.26;100063.80;1718989;81;21659;-61
2021/07/21 11:50:20;;;;;;;14.65;3.90;;;;;;;25.99;61.24;100054.86;1710223;81;20922;-60
2021/07/21 11:52:55;;;;;;;17.50;3.67;;;;;;;26.01;60.84;100059.16;1732391;80;21364;-61
2021/07/21 11:55:24;;;;;;;13.38;4.42;;;;;;;25.98;60.95;100065.00;1733797;81;20878;-59